createdAt,value
2023-10-02T00:01:22.241Z,23.21
2023-10-02T00:03:49.966Z,23.12
2023-10-02T00:06:18.430Z,23.24
2023-10-02T00:08:53.406Z,23.28
2023-10-02T00:11:37.601Z,23.01
2023-10-02T00:14:29.059Z,22.93
2023-10-02T00:17:01.701Z,22.89
2023-10-02T00:19:39.561Z,23.08
2023-10-02T00:22:39.635Z,22.84
2023-10-02T00:25:11.675Z,22.66
2023-10-02T00:27:39.709Z,22.49
2023-10-02T00:30:15.311Z,22.51
2023-10-02T00:32:47.136Z,22.41
2023-10-02T00:35:15.925Z,22.38
2023-10-02T00:37:55.972Z,22.48
2023-10-02T00:40:30.439Z,22.61
2023-10-02T00:43:22.809Z,22.57
2023-10-02T00:45:51.673Z,22.87
2023-10-02T00:48:27.351Z,22.87
2023-10-02T00:50:56.421Z,22.79
2023-10-02T00:53:41.197Z,22.63
2023-10-02T00:56:22.686Z,22.40
2023-10-02T00:59:02.294Z,22.40
2023-10-02T01:01:36.339Z,22.52
2023-10-02T01:04:12.791Z,22.54
2023-10-02T01:07:18.463Z,22.65
2023-10-02T01:10:08.005Z,22.73
2023-10-02T01:12:45.187Z,22.55
2023-10-02T01:15:13.818Z,22.56
2023-10-02T01:17:42.259Z,22.48
2023-10-02T01:20:22.131Z,22.50
2023-10-02T01:22:57.460Z,22.38
2023-10-02T01:25:25.869Z,22.40
2023-10-02T01:27:56.949Z,22.23
2023-10-02T01:30:25.833Z,22.40
2023-10-02T01:33:29.641Z,22.59
2023-10-02T01:36:00.853Z,22.42
2023-10-02T01:38:29.165Z,22.47
2023-10-02T01:41:04.270Z,22.39
2023-10-02T01:43:34.670Z,22.49
2023-10-02T01:46:03.097Z,22.29
2023-10-02T01:48:43.164Z,22.55
2023-10-02T01:51:22.310Z,22.42
2023-10-02T01:53:52.593Z,22.54
2023-10-02T01:56:21.511Z,22.54
2023-10-02T01:58:53.254Z,22.33
2023-10-02T02:01:22.278Z,22.48
2023-10-02T02:03:51.854Z,22.44
2023-10-02T02:06:24.368Z,22.53
2023-10-02T02:08:54.794Z,22.40
2023-10-02T02:11:24.569Z,22.46
2023-10-02T02:13:53.386Z,22.33
2023-10-02T02:16:32.619Z,22.29
2023-10-02T02:19:06.825Z,22.13
2023-10-02T02:21:35.252Z,22.24
2023-10-02T02:24:08.866Z,22.28
2023-10-02T02:26:41.168Z,22.10
2023-10-02T02:29:28.174Z,22.03
2023-10-02T02:31:56.881Z,22.21
2023-10-02T02:34:25.295Z,22.05
2023-10-02T02:36:55.843Z,21.83
2023-10-02T02:39:24.321Z,21.90
2023-10-02T02:42:12.869Z,21.98
2023-10-02T02:44:44.837Z,22.03
2023-10-02T02:47:14.569Z,21.83
2023-10-02T02:50:01.766Z,21.88
2023-10-02T02:52:34.085Z,21.89
2023-10-02T02:55:07.169Z,21.77
2023-10-02T02:57:39.700Z,21.81
2023-10-02T03:00:27.997Z,21.84
2023-10-02T03:02:57.768Z,21.77
2023-10-02T03:05:39.683Z,21.70
2023-10-02T03:08:09.953Z,21.83
2023-10-02T03:10:42.191Z,21.77
2023-10-02T03:13:17.178Z,21.84
2023-10-02T03:15:50.199Z,21.88
2023-10-02T03:18:47.503Z,21.85
2023-10-02T03:21:23.422Z,21.85
2023-10-02T03:23:52.484Z,21.89
2023-10-02T03:26:38.892Z,21.84
2023-10-02T03:29:13.571Z,21.77
2023-10-02T03:31:51.972Z,21.73
2023-10-02T03:34:30.801Z,21.70
2023-10-02T03:37:23.250Z,21.62
2023-10-02T03:40:14.383Z,21.59
2023-10-02T03:42:42.161Z,21.72
2023-10-02T03:45:10.388Z,21.73
2023-10-02T03:47:39.278Z,21.69
2023-10-02T03:50:18.238Z,21.71
2023-10-02T03:53:05.203Z,21.60
2023-10-02T03:55:35.092Z,21.48
2023-10-02T03:58:03.916Z,21.51
2023-10-02T04:00:44.737Z,21.55
2023-10-02T04:03:12.955Z,21.22
2023-10-02T04:05:47.437Z,20.89
2023-10-02T04:08:26.816Z,21.12
2023-10-02T04:10:59.126Z,21.42
2023-10-02T04:13:33.661Z,21.28
2023-10-02T04:16:22.260Z,21.35
2023-10-02T04:19:10.260Z,21.16
2023-10-02T04:21:38.567Z,20.87
2023-10-02T04:24:11.141Z,21.20
2023-10-02T04:26:43.470Z,21.18
2023-10-02T04:29:26.618Z,21.20
2023-10-02T04:32:15.739Z,21.28
2023-10-02T04:34:57.767Z,21.24
2023-10-02T04:37:25.910Z,21.23
2023-10-02T04:39:57.336Z,21.20
2023-10-02T04:42:48.338Z,21.18
2023-10-02T04:45:22.699Z,21.15
2023-10-02T04:47:50.897Z,21.14
2023-10-02T04:50:24.316Z,21.21
2023-10-02T04:52:57.193Z,21.18
2023-10-02T04:55:29.758Z,21.16
2023-10-02T04:58:16.124Z,20.81
2023-10-02T05:01:02.978Z,20.51
2023-10-02T05:03:38.576Z,20.48
2023-10-02T05:06:07.996Z,20.55
2023-10-02T05:08:42.426Z,20.68
2023-10-02T05:11:25.424Z,20.94
2023-10-02T05:13:57.367Z,20.82
2023-10-02T05:16:31.497Z,20.93
2023-10-02T05:19:00.109Z,20.76
2023-10-02T05:21:37.634Z,20.72
2023-10-02T05:24:14.690Z,20.66
2023-10-02T05:26:45.933Z,20.69
2023-10-02T05:29:38.204Z,20.74
2023-10-02T05:32:21.347Z,20.63
2023-10-02T05:35:22.544Z,20.89
2023-10-02T05:37:53.342Z,20.83
2023-10-02T05:40:22.750Z,21.03
2023-10-02T05:43:02.883Z,20.65
2023-10-02T05:45:47.189Z,20.84
2023-10-02T05:48:16.763Z,20.72
2023-10-02T05:50:48.863Z,20.71
2023-10-02T05:53:17.155Z,20.75
2023-10-02T05:56:07.616Z,20.75
2023-10-02T05:58:37.662Z,20.77
2023-10-02T06:01:08.293Z,20.92
2023-10-02T06:03:37.339Z,21.23
2023-10-02T06:06:17.119Z,20.76
2023-10-02T06:09:02.965Z,20.78
2023-10-02T06:11:35.055Z,21.00
2023-10-02T06:14:13.970Z,21.26
2023-10-02T06:16:43.147Z,20.90
2023-10-02T06:19:14.809Z,20.36
2023-10-02T06:22:04.279Z,20.82
2023-10-02T06:24:32.417Z,21.30
2023-10-02T06:27:06.109Z,21.21
2023-10-02T06:29:37.013Z,21.79
2023-10-02T06:32:11.523Z,21.40
2023-10-02T06:34:41.212Z,21.47
2023-10-02T06:37:13.946Z,21.65
2023-10-02T06:39:47.323Z,21.76
2023-10-02T06:42:18.810Z,21.99
2023-10-02T06:44:55.613Z,21.88
2023-10-02T06:47:25.009Z,21.82
2023-10-02T06:49:53.532Z,22.09
2023-10-02T06:52:22.056Z,22.00
2023-10-02T06:54:50.722Z,21.70
2023-10-02T06:57:19.654Z,22.32
2023-10-02T06:59:54.945Z,22.33
2023-10-02T07:02:23.332Z,22.45
2023-10-02T07:04:55.148Z,22.51
2023-10-02T07:07:31.384Z,22.36
2023-10-02T07:10:09.284Z,22.40
2023-10-02T07:12:41.889Z,22.74
2023-10-02T07:15:14.848Z,22.57
2023-10-02T07:18:02.166Z,22.78
2023-10-02T07:20:44.241Z,22.32
2023-10-02T07:23:16.830Z,22.56
2023-10-02T07:25:51.859Z,22.81
2023-10-02T07:28:22.636Z,22.87
2023-10-02T07:30:53.693Z,23.15
2023-10-02T07:33:21.914Z,23.90
2023-10-02T07:35:56.121Z,23.95
2023-10-02T07:38:31.844Z,24.08
2023-10-02T07:41:08.219Z,23.74
2023-10-02T07:43:36.506Z,23.42
2023-10-02T07:46:15.874Z,23.76
2023-10-02T07:48:57.366Z,24.01
2023-10-02T07:51:32.302Z,24.58
2023-10-02T07:54:01.360Z,24.12
2023-10-02T07:56:30.513Z,24.24
2023-10-02T07:59:03.152Z,24.62
2023-10-02T08:01:35.025Z,24.50
2023-10-02T08:04:04.073Z,24.24
2023-10-02T08:06:35.121Z,24.68
2023-10-02T08:09:23.462Z,24.95
2023-10-02T08:11:52.699Z,25.10
2023-10-02T08:14:44.118Z,25.00
2023-10-02T08:17:31.502Z,25.43
2023-10-02T08:20:00.928Z,26.12
2023-10-02T08:22:38.143Z,26.54
2023-10-02T08:25:15.122Z,25.43
2023-10-02T08:28:00.146Z,25.43
2023-10-02T08:30:37.950Z,25.79
2023-10-02T08:33:23.008Z,25.41
2023-10-02T08:36:11.420Z,25.83
2023-10-02T08:38:42.116Z,26.11
2023-10-02T08:41:10.253Z,26.06
2023-10-02T08:43:47.200Z,25.82
2023-10-02T08:46:23.870Z,26.07
2023-10-02T08:48:59.280Z,25.82
2023-10-02T08:51:37.653Z,26.16
2023-10-02T08:54:07.082Z,27.11
2023-10-02T08:56:45.233Z,27.41
2023-10-02T08:59:20.247Z,27.74
2023-10-02T09:01:49.694Z,27.37
2023-10-02T09:04:28.101Z,27.17
2023-10-02T09:07:00.483Z,26.86
2023-10-02T09:09:29.300Z,26.98
2023-10-02T09:12:00.463Z,27.20
2023-10-02T09:14:31.796Z,27.77
2023-10-02T09:17:19.787Z,27.97
2023-10-02T09:19:54.933Z,27.45
2023-10-02T09:22:24.630Z,27.89
2023-10-02T09:25:28.145Z,27.83
2023-10-02T09:28:02.243Z,28.74
2023-10-02T09:30:38.765Z,29.14
2023-10-02T09:33:25.956Z,29.05
2023-10-02T09:36:49.258Z,28.96
2023-10-02T09:38:57.592Z,28.53
2023-10-02T09:41:26.166Z,28.22
2023-10-02T09:43:55.450Z,28.78
2023-10-02T09:46:27.611Z,29.08
2023-10-02T09:49:22.995Z,28.35
2023-10-02T09:52:13.492Z,27.60
2023-10-02T09:55:04.992Z,28.15
2023-10-02T09:57:37.383Z,28.36
2023-10-02T10:00:31.361Z,28.39
2023-10-02T10:03:23.826Z,28.04
2023-10-02T10:06:07.110Z,28.05
2023-10-02T10:09:13.258Z,29.26
2023-10-02T10:11:42.190Z,29.83
2023-10-02T10:14:37.291Z,30.21
2023-10-02T10:17:14.470Z,30.21
2023-10-02T10:20:31.434Z,29.92
2023-10-02T10:23:19.478Z,30.43
2023-10-02T10:25:52.364Z,29.72
2023-10-02T10:28:27.507Z,29.64
2023-10-02T10:31:03.199Z,30.33
2023-10-02T10:33:35.439Z,29.55
2023-10-02T10:36:10.641Z,30.27
2023-10-02T10:38:40.748Z,29.32
2023-10-02T10:41:16.230Z,28.85
2023-10-02T10:43:47.184Z,28.44
2023-10-02T10:46:17.859Z,28.65
2023-10-02T10:48:54.494Z,29.72
2023-10-02T10:51:22.423Z,29.25
2023-10-02T10:54:02.018Z,29.09
2023-10-02T10:56:30.134Z,29.83
2023-10-02T10:59:10.483Z,29.75
2023-10-02T11:02:11.473Z,29.99
2023-10-02T11:04:52.130Z,29.85
2023-10-02T11:07:26.939Z,30.42
2023-10-02T11:10:20.883Z,29.29
2023-10-02T11:12:57.602Z,29.81
2023-10-02T11:15:49.871Z,29.77
2023-10-02T11:18:21.883Z,29.94
2023-10-02T11:20:51.200Z,30.25
2023-10-02T11:23:24.686Z,29.45
2023-10-02T11:25:54.822Z,29.47
2023-10-02T11:28:34.070Z,29.64
2023-10-02T11:31:31.157Z,29.86
2023-10-02T11:34:30.157Z,30.01
2023-10-02T11:36:57.796Z,30.46
2023-10-02T11:39:29.167Z,31.68
2023-10-02T11:41:57.830Z,31.45
2023-10-02T11:44:27.688Z,30.89
2023-10-02T11:46:56.506Z,30.46
2023-10-02T11:49:24.263Z,31.23
2023-10-02T11:51:52.291Z,31.58
2023-10-02T11:54:20.095Z,31.63
2023-10-02T11:56:48.584Z,31.87
2023-10-02T11:59:16.551Z,31.56
2023-10-02T12:01:46.848Z,31.36
2023-10-02T12:04:15.037Z,30.76
2023-10-02T12:06:43.776Z,31.10
2023-10-02T12:09:19.560Z,31.77
2023-10-02T12:11:47.876Z,31.84
2023-10-02T12:14:15.620Z,31.82
2023-10-02T12:16:43.737Z,31.97
2023-10-02T12:19:12.039Z,33.33
2023-10-02T12:21:44.341Z,32.80
2023-10-02T12:24:15.347Z,31.84
2023-10-02T12:26:45.163Z,31.84
2023-10-02T12:29:12.960Z,31.58
2023-10-02T12:31:42.011Z,32.18
2023-10-02T12:34:09.837Z,32.48
2023-10-02T12:36:37.991Z,32.06
2023-10-02T12:39:10.980Z,32.18
2023-10-02T12:41:38.986Z,31.05
2023-10-02T12:44:09.317Z,31.55
2023-10-02T12:46:45.006Z,31.45
2023-10-02T12:49:15.929Z,31.37
2023-10-02T12:51:45.130Z,32.22
2023-10-02T12:54:13.270Z,33.19
2023-10-02T12:56:41.387Z,32.39
2023-10-02T12:59:11.214Z,32.85
2023-10-02T13:01:40.326Z,32.34
2023-10-02T13:04:08.327Z,32.22
2023-10-02T13:06:36.576Z,32.84
2023-10-02T13:09:16.121Z,33.21
2023-10-02T13:11:48.925Z,31.97
2023-10-02T13:14:20.310Z,31.88
2023-10-02T13:16:50.433Z,31.58
2023-10-02T13:19:18.338Z,30.74
2023-10-02T13:21:53.223Z,31.36
2023-10-02T13:24:24.978Z,31.82
2023-10-02T13:26:54.952Z,32.49
2023-10-02T13:29:24.102Z,33.59
2023-10-02T13:31:53.367Z,32.48
2023-10-02T13:34:22.585Z,33.36
2023-10-02T13:36:50.941Z,33.05
2023-10-02T13:39:19.754Z,32.64
2023-10-02T13:41:48.675Z,32.35
2023-10-02T13:44:19.400Z,32.21
2023-10-02T13:46:50.222Z,32.63
2023-10-02T13:49:20.834Z,32.71
2023-10-02T13:51:49.227Z,31.80
2023-10-02T13:54:16.893Z,32.47
2023-10-02T13:56:45.332Z,32.02
2023-10-02T13:59:13.035Z,32.34
2023-10-02T14:01:41.464Z,32.41
2023-10-02T14:04:11.740Z,33.67
2023-10-02T14:06:39.921Z,34.16
2023-10-02T14:09:11.998Z,34.54
2023-10-02T14:11:41.855Z,34.57
2023-10-02T14:14:09.891Z,34.67
2023-10-02T14:16:38.041Z,34.39
2023-10-02T14:19:08.129Z,34.76
2023-10-02T14:21:36.552Z,33.77
2023-10-02T14:24:06.418Z,34.79
2023-10-02T14:26:34.528Z,34.96
2023-10-02T14:29:02.549Z,36.37
2023-10-02T14:31:33.949Z,36.26
2023-10-02T14:34:02.451Z,37.12
2023-10-02T14:36:31.289Z,38.01
2023-10-02T14:39:00.261Z,37.72
2023-10-02T14:41:28.949Z,38.26
2023-10-02T14:43:58.459Z,37.07
2023-10-02T14:46:26.936Z,37.64
2023-10-02T14:48:55.024Z,37.73
2023-10-02T14:51:23.974Z,38.85
2023-10-02T14:53:52.057Z,39.41
2023-10-02T14:56:22.824Z,38.96
2023-10-02T14:58:52.146Z,37.64
2023-10-02T15:01:21.189Z,38.47
2023-10-02T15:03:50.458Z,38.61
2023-10-02T15:06:18.424Z,38.18
2023-10-02T15:08:46.568Z,38.50
2023-10-02T15:11:17.781Z,36.77
2023-10-02T15:13:48.630Z,33.57
2023-10-02T15:16:17.364Z,33.56
2023-10-02T15:18:48.560Z,33.63
2023-10-02T15:21:20.601Z,33.31
2023-10-02T15:23:50.020Z,33.24
2023-10-02T15:26:19.758Z,32.73
2023-10-02T15:28:49.954Z,32.66
2023-10-02T15:31:19.654Z,32.62
2023-10-02T15:33:47.766Z,32.47
2023-10-02T15:36:17.132Z,32.21
2023-10-02T15:38:47.033Z,32.63
2023-10-02T15:41:27.210Z,32.65
2023-10-02T15:43:55.332Z,32.75
2023-10-02T15:46:23.261Z,32.25
2023-10-02T15:48:51.257Z,31.63
2023-10-02T15:51:18.976Z,31.94
2023-10-02T15:53:47.032Z,32.12
2023-10-02T15:56:16.918Z,32.01
2023-10-02T15:58:46.577Z,31.39
2023-10-02T16:01:18.584Z,31.63
2023-10-02T16:03:48.206Z,31.56
2023-10-02T16:06:24.682Z,31.78
2023-10-02T16:08:55.334Z,31.74
2023-10-02T16:11:23.643Z,31.52
2023-10-02T16:13:54.335Z,31.36
2023-10-02T16:16:25.858Z,30.89
2023-10-02T16:18:53.899Z,30.44
2023-10-02T16:21:25.299Z,30.55
2023-10-02T16:23:53.331Z,30.75
2023-10-02T16:26:23.502Z,30.65
2023-10-02T16:28:53.034Z,30.43
2023-10-02T16:31:26.860Z,30.43
2023-10-02T16:33:55.714Z,30.65
2023-10-02T16:36:27.478Z,30.60
2023-10-02T16:41:29.910Z,30.48
2023-10-02T16:43:57.927Z,30.19
2023-10-02T16:46:25.845Z,30.21
2023-10-02T16:48:54.428Z,30.08
2023-10-02T16:51:22.578Z,29.95
2023-10-02T16:53:50.687Z,29.89
2023-10-02T16:56:20.430Z,29.79
2023-10-02T16:58:48.955Z,29.83
2023-10-02T17:01:19.859Z,29.69
2023-10-02T17:03:48.302Z,29.64
2023-10-02T17:06:16.036Z,29.62
2023-10-02T17:08:44.077Z,29.43
2023-10-02T17:11:12.821Z,29.35
2023-10-02T17:13:44.343Z,29.25
2023-10-02T17:16:12.461Z,29.17
2023-10-02T17:18:40.657Z,29.14
2023-10-02T17:21:10.377Z,29.14
2023-10-02T17:23:38.451Z,29.18
2023-10-02T17:26:09.777Z,28.96
2023-10-02T17:28:39.772Z,28.89
2023-10-02T17:31:09.991Z,28.79
2023-10-02T17:33:39.773Z,28.91
2023-10-02T17:36:07.772Z,28.80
2023-10-02T17:38:35.923Z,28.63
2023-10-02T17:41:03.647Z,28.63
2023-10-02T17:43:32.148Z,28.45
2023-10-02T17:46:00.469Z,28.16
2023-10-02T17:48:28.853Z,28.03
2023-10-02T17:50:56.510Z,28.05
2023-10-02T17:53:24.561Z,28.31
2023-10-02T17:55:52.307Z,28.11
2023-10-02T17:58:20.887Z,28.26
2023-10-02T18:00:48.918Z,28.20
2023-10-02T18:03:17.774Z,28.05
2023-10-02T18:05:46.992Z,28.08
2023-10-02T18:08:15.448Z,28.05
2023-10-02T18:10:46.310Z,27.91
2023-10-02T18:13:14.487Z,27.76
2023-10-02T18:15:46.237Z,27.96
2023-10-02T18:18:16.133Z,27.72
2023-10-02T18:20:47.218Z,27.71
2023-10-02T18:23:18.145Z,27.64
2023-10-02T18:25:55.112Z,27.74
2023-10-02T18:28:23.293Z,27.67
2023-10-02T18:30:51.750Z,27.62
2023-10-02T18:33:19.915Z,27.49
2023-10-02T18:35:47.800Z,27.35
2023-10-02T18:38:15.910Z,27.25
2023-10-02T18:40:48.061Z,27.22
2023-10-02T18:43:16.683Z,27.22
2023-10-02T18:45:45.878Z,26.94
2023-10-02T18:48:14.248Z,26.78
2023-10-02T18:50:42.332Z,26.71
2023-10-02T18:53:10.496Z,26.48
2023-10-02T18:55:38.488Z,26.47
2023-10-02T18:58:07.157Z,26.41
2023-10-02T19:00:35.017Z,26.30
2023-10-02T19:03:04.439Z,26.28
2023-10-02T19:05:34.869Z,26.32
2023-10-02T19:08:06.180Z,26.24
2023-10-02T19:10:34.397Z,26.32
2023-10-02T19:13:02.536Z,26.24
2023-10-02T19:15:31.875Z,26.25
2023-10-02T19:18:00.078Z,26.33
2023-10-02T19:20:28.109Z,26.34
2023-10-02T19:22:56.319Z,26.32
2023-10-02T19:25:24.348Z,26.15
2023-10-02T19:27:52.330Z,25.95
2023-10-02T19:30:20.051Z,25.96
2023-10-02T19:32:48.957Z,25.96
2023-10-02T19:35:17.043Z,26.00
2023-10-02T19:37:45.135Z,26.13
2023-10-02T19:40:12.867Z,26.06
2023-10-02T19:42:40.910Z,25.94
2023-10-02T19:45:08.994Z,25.88
2023-10-02T19:47:37.119Z,25.77
2023-10-02T19:50:05.194Z,25.64
2023-10-02T19:52:33.270Z,25.51
2023-10-02T19:55:02.267Z,25.49
2023-10-02T19:57:30.034Z,25.73
2023-10-02T19:59:58.297Z,25.68
2023-10-02T20:02:27.573Z,25.66
2023-10-02T20:04:55.838Z,25.88
2023-10-02T20:07:24.220Z,25.76
2023-10-02T20:09:52.400Z,25.91
2023-10-02T20:12:22.040Z,25.75
2023-10-02T20:14:50.477Z,25.87
2023-10-02T20:17:18.294Z,25.96
2023-10-02T20:19:46.453Z,25.68
2023-10-02T20:22:14.115Z,26.00
2023-10-02T20:24:42.359Z,26.04
2023-10-02T20:27:10.302Z,25.90
2023-10-02T20:29:38.382Z,25.95
2023-10-02T20:32:06.990Z,25.80
2023-10-02T20:34:37.609Z,25.82
2023-10-02T20:37:05.966Z,25.70
2023-10-02T20:39:34.173Z,25.65
2023-10-02T20:42:02.409Z,25.71
2023-10-02T20:44:33.079Z,25.66
2023-10-02T20:47:14.016Z,25.68
2023-10-02T20:49:43.861Z,25.63
2023-10-02T20:52:11.756Z,25.59
2023-10-02T20:54:39.786Z,25.75
2023-10-02T20:57:07.825Z,25.59
2023-10-02T20:59:35.931Z,25.78
2023-10-02T21:02:03.652Z,25.61
2023-10-02T21:04:32.273Z,25.66
2023-10-02T21:07:00.099Z,25.80
2023-10-02T21:09:28.248Z,25.71
2023-10-02T21:11:56.092Z,25.63
2023-10-02T21:14:24.466Z,25.65
2023-10-02T21:16:53.575Z,25.56
2023-10-02T21:19:23.048Z,25.46
2023-10-02T21:21:53.388Z,25.41
2023-10-02T21:24:24.785Z,25.53
2023-10-02T21:26:52.694Z,25.48
2023-10-02T21:29:21.111Z,25.56
2023-10-02T21:31:49.027Z,25.39
2023-10-02T21:34:17.422Z,25.46
2023-10-02T21:36:45.361Z,25.35
2023-10-02T21:39:16.081Z,25.42
2023-10-02T21:41:44.813Z,25.58
2023-10-02T21:44:13.146Z,25.48
2023-10-02T21:46:41.288Z,25.44
2023-10-02T21:49:09.772Z,25.61
2023-10-02T21:51:37.727Z,25.44
2023-10-02T21:54:07.345Z,25.57
2023-10-02T21:56:36.420Z,25.57
2023-10-02T21:59:04.730Z,25.45
2023-10-02T22:01:32.619Z,25.38
2023-10-02T22:04:00.944Z,25.16
2023-10-02T22:06:30.872Z,24.98
2023-10-02T22:08:59.112Z,24.95
2023-10-02T22:11:27.031Z,24.94
2023-10-02T22:13:55.199Z,24.92
2023-10-02T22:16:26.542Z,24.92
2023-10-02T22:18:55.092Z,24.77
2023-10-02T22:21:24.910Z,24.78
2023-10-02T22:23:54.341Z,24.76
2023-10-02T22:26:22.222Z,24.57
2023-10-02T22:28:50.430Z,24.58
2023-10-02T22:31:18.145Z,24.55
2023-10-02T22:33:48.638Z,24.54
2023-10-02T22:36:17.673Z,24.42
2023-10-02T22:38:46.394Z,24.45
2023-10-02T22:41:14.344Z,24.34
2023-10-02T22:43:42.886Z,24.30
2023-10-02T22:46:11.514Z,24.43
2023-10-02T22:48:40.778Z,24.21
2023-10-02T22:51:09.261Z,24.34
2023-10-02T22:53:38.707Z,24.16
2023-10-02T22:56:06.600Z,24.16
2023-10-02T22:58:34.703Z,24.15
2023-10-02T23:01:05.545Z,24.08
2023-10-02T23:03:37.094Z,24.17
2023-10-02T23:06:09.835Z,24.11
2023-10-02T23:08:38.623Z,24.13
2023-10-02T23:11:08.020Z,24.10
2023-10-02T23:13:37.202Z,24.02
2023-10-02T23:16:04.940Z,23.93
2023-10-02T23:18:36.879Z,24.02
2023-10-02T23:21:04.742Z,23.92
2023-10-02T23:23:33.177Z,23.95
2023-10-02T23:26:01.048Z,23.93
2023-10-02T23:28:29.541Z,23.97
2023-10-02T23:30:57.367Z,24.09
2023-10-02T23:33:25.466Z,24.01
2023-10-02T23:35:54.475Z,23.78
2023-10-02T23:38:22.558Z,23.73
2023-10-02T23:40:51.469Z,23.83
2023-10-02T23:43:21.331Z,23.65
2023-10-02T23:45:52.571Z,23.60
2023-10-02T23:48:21.480Z,23.56
2023-10-02T23:50:49.867Z,23.53
2023-10-02T23:53:26.001Z,23.42
2023-10-02T23:56:00.817Z,23.46
2023-10-02T23:58:29.942Z,23.22
